C719 Diversion




Date Battery Voltage (V) Gauge Height (ft) Canal Flow (cfs) Gate 1 Height (ft) Gate 2 Height (ft) Pond (ft) Pond Height (ft) Pond Battery Voltage (V) Pond RF Signal (db) Call Fails Total Fails Tries Auto Pond Pond Set (ft) Gate 1 Warning Gate 2 Warning Gate 1 Up Total Gate 1 Down Total Gate 2 Up Total Gate 2 Down Total Settle Count Auto CFS CFS Set (cfs)
07/01/2018 13.0 0.50 14.02 0.31 0.28
07/02/2018 12.9 0.50 14.00 0.31 0.30
07/03/2018 12.9 0.50 13.91 0.31 0.29
07/04/2018 13.0 0.45 12.05 0.32 0.22
07/05/2018 12.9 0.40 10.02 0.33 0.13
07/06/2018 12.9 0.42 10.84 0.33 0.17
07/07/2018 12.9 0.44 11.54 0.36 0.18
07/08/2018 12.9 0.45 12.08 0.38 0.13
07/09/2018 12.9 0.45 12.04 0.38 0.08
07/10/2018 12.9 0.45 12.06 0.38 0.06
07/11/2018 12.9 0.45 12.04 0.38 0.18
07/12/2018 12.9 0.43 11.32 0.38 0.22
07/13/2018 12.9 0.43 11.00 0.38 0.24
07/14/2018 12.9 0.42 10.89 0.38 0.29
07/15/2018 13.0 0.42 10.70 0.38 0.31
07/16/2018 12.9 0.18 3.39 0.38 0.31
07/17/2018 12.9 0.49 13.99 0.33 0.21
07/18/2018 12.9 0.42 10.90 0.09 0.27
07/19/2018 12.9 0.41 10.44 0.22 0.18
07/20/2018 12.9 0.40 10.04 0.22 0.17
07/21/2018 12.9 0.40 10.04 0.22 0.15
07/22/2018 12.9 0.40 10.00 0.22 0.13
07/23/2018 12.9 0.40 10.07 0.22 0.11
07/24/2018 12.9 0.40 10.13 0.22 0.04
07/25/2018 12.9 0.40 9.96 0.22 0.00
07/26/2018 13.0 0.32 7.37 0.14 0.09
07/27/2018 12.9 0.28 6.01 0.06 0.06
07/28/2018 13.0 0.28 5.98 0.07 0.07
07/29/2018 13.0 0.28 5.99 0.06 0.06
07/30/2018 12.9 0.28 6.01 0.05 0.06
07/31/2018 12.9 0.28 6.01 0.05 0.07
Average 10.16 0.00
Maximum 14.02
Minimum 3.39
Total Volume (AF) 624.33 0.00